createdAt,value
2019-04-21T12:04:49.951Z,19
2019-04-21T12:06:57.800Z,26
2019-04-21T12:09:02.949Z,23
2019-04-21T12:10:49.768Z,20
2019-04-21T12:12:51.344Z,29
2019-04-21T12:14:50.567Z,18
2019-04-21T12:16:51.218Z,28
2019-04-21T12:18:52.640Z,28
2019-04-21T12:20:49.786Z,34
2019-04-21T12:22:49.777Z,33
2019-04-21T12:24:51.610Z,24
2019-04-21T12:26:51.678Z,27
2019-04-21T12:28:50.424Z,30
2019-04-21T12:30:51.933Z,30
2019-04-21T12:32:52.277Z,25
2019-04-21T12:34:55.402Z,30
2019-04-21T12:36:51.060Z,32
2019-04-21T12:39:05.137Z,28
2019-04-21T12:40:51.124Z,0
2019-04-21T12:42:50.774Z,0
2019-04-21T12:44:50.030Z,0
2019-04-21T12:46:50.141Z,0
2019-04-21T12:48:50.110Z,0
2019-04-21T12:50:50.200Z,0
2019-04-21T12:52:49.976Z,0
2019-04-21T12:54:49.777Z,0
2019-04-21T12:56:49.921Z,0
2019-04-21T12:58:51.438Z,0
2019-04-21T13:00:51.948Z,0
2019-04-21T13:02:50.205Z,0
2019-04-21T13:04:55.917Z,0
2019-04-21T13:06:51.751Z,0
2019-04-21T13:09:12.333Z,0
2019-04-21T13:10:50.324Z,0
2019-04-21T13:12:50.422Z,0
2019-04-21T13:14:50.081Z,0
2019-04-21T13:16:51.961Z,0
2019-04-21T13:18:51.507Z,0
2019-04-21T13:20:49.726Z,0
2019-04-21T13:22:50.600Z,0
2019-04-21T13:24:51.944Z,0
2019-04-21T13:27:03.881Z,0
2019-04-21T13:28:50.383Z,0
2019-04-21T13:30:50.978Z,0
2019-04-21T13:32:51.634Z,0
2019-04-21T13:34:52.848Z,0
2019-04-21T13:36:51.664Z,0
2019-04-21T13:39:37.622Z,0
2019-04-21T13:41:32.435Z,0
2019-04-21T13:43:05.861Z,0
2019-04-21T13:44:51.278Z,0
2019-04-21T13:46:50.442Z,0
2019-04-21T13:48:52.652Z,0
2019-04-21T13:50:51.490Z,0
2019-04-21T13:52:51.421Z,0
2019-04-21T13:54:51.827Z,0
2019-04-21T13:56:52.492Z,0
2019-04-21T13:58:50.817Z,0
2019-04-21T14:00:55.688Z,0
2019-04-21T14:02:49.925Z,0
2019-04-21T14:04:53.583Z,0
2019-04-21T14:06:50.429Z,0
2019-04-21T14:08:52.813Z,0
2019-04-21T14:10:51.685Z,0
2019-04-21T14:12:50.982Z,0
2019-04-21T14:14:50.662Z,0
2019-04-21T14:16:52.308Z,0
2019-04-21T14:18:50.069Z,0
2019-04-21T14:20:51.158Z,0
2019-04-21T14:22:52.042Z,0
2019-04-21T14:24:50.315Z,0
2019-04-21T14:26:50.482Z,0
2019-04-21T14:28:51.542Z,0
2019-04-21T14:30:52.440Z,0
2019-04-21T14:32:50.182Z,0
2019-04-21T14:34:54.248Z,0
2019-04-21T14:36:51.162Z,0
2019-04-21T14:38:50.708Z,0
2019-04-21T14:40:50.669Z,0
2019-04-21T14:42:50.382Z,0
2019-04-21T14:44:51.502Z,0
2019-04-21T14:46:51.414Z,0
2019-04-21T14:48:51.162Z,0
2019-04-21T14:50:50.772Z,0
2019-04-21T14:52:50.929Z,0
2019-04-21T14:54:51.214Z,0
2019-04-21T14:56:51.604Z,0
2019-04-21T14:58:51.201Z,0
2019-04-21T15:00:53.200Z,0
2019-04-21T15:02:51.929Z,0
2019-04-21T15:04:51.786Z,0
2019-04-21T15:06:49.874Z,0
2019-04-21T15:08:51.070Z,0
2019-04-21T15:10:50.398Z,0
2019-04-21T15:12:52.052Z,0
2019-04-21T15:14:52.048Z,0
2019-04-21T15:16:51.512Z,0
2019-04-21T15:18:50.898Z,0
2019-04-21T15:20:50.906Z,0
2019-04-21T15:22:50.738Z,0
2019-04-21T15:24:52.009Z,0
2019-04-21T15:26:54.628Z,0
2019-04-21T15:28:52.806Z,0
2019-04-21T15:30:50.711Z,0
2019-04-21T15:32:50.943Z,0
2019-04-21T15:34:50.229Z,0
2019-04-21T15:36:50.639Z,0
2019-04-21T15:38:52.239Z,0
2019-04-21T15:41:07.019Z,0
2019-04-21T15:42:50.881Z,0
2019-04-21T15:44:50.867Z,0
2019-04-21T15:46:50.408Z,0
2019-04-21T15:48:51.347Z,0
2019-04-21T15:50:52.021Z,0
2019-04-21T15:52:51.832Z,0
2019-04-21T15:54:50.665Z,0
2019-04-21T15:56:52.812Z,0
2019-04-21T15:58:50.910Z,0
2019-04-21T16:00:50.089Z,0
2019-04-21T16:02:51.175Z,0
2019-04-21T16:04:50.867Z,0
2019-04-21T16:06:50.260Z,0
2019-04-21T16:09:02.571Z,0
2019-04-21T16:11:07.130Z,0
2019-04-21T16:12:52.164Z,0
2019-04-21T16:14:50.674Z,0
2019-04-21T16:16:49.861Z,16
2019-04-21T16:18:50.352Z,29
2019-04-21T16:20:51.938Z,29
2019-04-21T16:22:50.911Z,29
